PWSweather.com
Personal Weather Stations
Station Observations
133525
French Quarters West Seneca , West Seneca, NY 14224

French Quarters West Seneca West Seneca, NY 14224

Lat: 42.850058, Lon: -78.799754

Elevation: 603

Station Type: Davis Vantage Vue pro2

http://westsenecaweather.com/

High Low Average
Temperature 29.8°F-1.2°F 23.0°F-5.0°F 27.3°F-2.6°F
Dew Point 25.1°F-3.8°F 19.2°F-7.1°F 22.6°F-5.2°F
Winds 12.7 mph -20.4 mph - Calm Calm 5.0 mph 8.0 mph
Wind Gusts 21.9 mph35.2 mph -- 8.1 mph13.0 mph
Humidity 88% 76% 83%
Pressure 30.23 in1023.70 in 29.99 in1015.60 in -
Precipitation 0.00 in0.00 in - -
Hour Temp Dew Point Humidity Winds Wind Gusts Pressure Precip Precip Rate Daily Precip Total
12:00 AM 24.1°F-4.4°C 20.0°F-6.7°C 84% 3.5 mph E5.6 kmh E 6.9 mph11.1 kmh 30.23 in1023.7 mb - 0.00 in0.0 mm 0.00 in0.0 mm
12:10 AM 23.8°F-4.6°C 19.9°F-6.7°C 85% 2.3 mph E3.7 kmh E 3.5 mph5.6 kmh 30.23 in1023.7 mb - 0.00 in0.0 mm 0.00 in0.0 mm
12:15 AM 23.8°F-4.6°C 19.9°F-6.7°C 85% 1.2 mph E1.9 kmh E 3.5 mph5.6 kmh 30.22 in1023.4 mb - 0.00 in0.0 mm 0.00 in0.0 mm
12:20 AM 23.6°F-4.7°C 19.8°F-6.8°C 85% 1.2 mph E1.9 kmh E 2.3 mph3.7 kmh 30.23 in1023.7 mb - 0.00 in0.0 mm 0.00 in0.0 mm
12:25 AM 23.5°F-4.7°C 19.7°F-6.8°C 85% 2.3 mph E3.7 kmh E 3.5 mph5.6 kmh 30.22 in1023.4 mb - 0.00 in0.0 mm 0.00 in0.0 mm
12:30 AM 23.4°F-4.8°C 19.6°F-6.9°C 85% 1.2 mph E1.9 kmh E 2.3 mph3.7 kmh 30.22 in1023.4 mb - 0.00 in0.0 mm 0.00 in0.0 mm
12:35 AM 23.3°F-4.8°C 19.4°F-7.0°C 85% 2.3 mph E3.7 kmh E 4.6 mph7.4 kmh 30.22 in1023.4 mb - 0.00 in0.0 mm 0.00 in0.0 mm
12:40 AM 23.1°F-4.9°C 19.3°F-7.1°C 85% 1.2 mph E1.9 kmh E 2.3 mph3.7 kmh 30.22 in1023.4 mb - 0.00 in0.0 mm 0.00 in0.0 mm
12:45 AM 23.0°F-5.0°C 19.2°F-7.1°C 85% 3.5 mph E5.6 kmh E 5.8 mph9.3 kmh 30.22 in1023.4 mb - 0.00 in0.0 mm 0.00 in0.0 mm
12:50 AM 23.0°F-5.0°C 19.2°F-7.1°C 85% 2.3 mph E3.7 kmh E 4.6 mph7.4 kmh 30.22 in1023.4 mb - 0.00 in0.0 mm 0.00 in0.0 mm
12:55 AM 23.1°F-4.9°C 19.3°F-7.1°C 85% Calm Calm 1.2 mph1.9 kmh 30.22 in1023.4 mb - 0.00 in0.0 mm 0.00 in0.0 mm
01:00 AM 23.1°F-4.9°C 19.3°F-7.1°C 85% 1.2 mph E1.9 kmh E 3.5 mph5.6 kmh 30.22 in1023.4 mb - 0.00 in0.0 mm 0.00 in0.0 mm
01:10 AM 23.1°F-4.9°C 19.3°F-7.1°C 85% 2.3 mph NW3.7 kmh NW 2.3 mph3.7 kmh 30.22 in1023.4 mb - 0.00 in0.0 mm 0.00 in0.0 mm
01:15 AM 23.2°F-4.9°C 19.3°F-7.1°C 85% 2.3 mph WNW3.7 kmh WNW 3.5 mph5.6 kmh 30.22 in1023.4 mb - 0.00 in0.0 mm 0.00 in0.0 mm
01:20 AM 23.2°F-4.9°C 19.7°F-6.8°C 86% 2.3 mph WNW3.7 kmh WNW 3.5 mph5.6 kmh 30.21 in1023.0 mb - 0.00 in0.0 mm 0.00 in0.0 mm
01:25 AM 23.3°F-4.8°C 19.7°F-6.8°C 86% 2.3 mph WNW3.7 kmh WNW 2.3 mph3.7 kmh 30.21 in1023.0 mb - 0.00 in0.0 mm 0.00 in0.0 mm
01:30 AM 23.4°F-4.8°C 19.8°F-6.8°C 86% Calm Calm 2.3 mph3.7 kmh 30.21 in1023.0 mb - 0.00 in0.0 mm 0.00 in0.0 mm
01:35 AM 23.5°F-4.7°C 19.9°F-6.7°C 86% Calm Calm -- 30.21 in1023.0 mb - 0.00 in0.0 mm 0.00 in0.0 mm
01:40 AM 23.7°F-4.6°C 20.1°F-6.6°C 86% 1.2 mph NE1.9 kmh NE 3.5 mph5.6 kmh 30.21 in1023.0 mb - 0.00 in0.0 mm 0.00 in0.0 mm
01:45 AM 23.8°F-4.6°C 20.2°F-6.6°C 86% 1.2 mph NE1.9 kmh NE 2.3 mph3.7 kmh 30.21 in1023.0 mb - 0.00 in0.0 mm 0.00 in0.0 mm
01:50 AM 23.9°F-4.5°C 20.3°F-6.5°C 86% Calm Calm -- 30.21 in1023.0 mb - 0.00 in0.0 mm 0.00 in0.0 mm
01:55 AM 23.9°F-4.5°C 20.4°F-6.4°C 86% 1.2 mph NE1.9 kmh NE 2.3 mph3.7 kmh 30.21 in1023.0 mb - 0.00 in0.0 mm 0.00 in0.0 mm
02:00 AM 24.0°F-4.4°C 20.4°F-6.4°C 86% 1.2 mph NE1.9 kmh NE 2.3 mph3.7 kmh 30.20 in1022.7 mb - 0.00 in0.0 mm 0.00 in0.0 mm
02:10 AM 24.2°F-4.3°C 20.9°F-6.2°C 87% 2.3 mph NE3.7 kmh NE 3.5 mph5.6 kmh 30.21 in1023.0 mb - 0.00 in0.0 mm 0.00 in0.0 mm
02:15 AM 24.5°F-4.2°C 21.2°F-6.0°C 87% 1.2 mph NE1.9 kmh NE 3.5 mph5.6 kmh 30.21 in1023.0 mb - 0.00 in0.0 mm 0.00 in0.0 mm
02:20 AM 24.9°F-3.9°C 21.8°F-5.7°C 88% 1.2 mph NNW1.9 kmh NNW 2.3 mph3.7 kmh 30.21 in1023.0 mb - 0.00 in0.0 mm 0.00 in0.0 mm
02:25 AM 25.2°F-3.8°C 22.1°F-5.5°C 88% 1.2 mph NNW1.9 kmh NNW 3.5 mph5.6 kmh 30.21 in1023.0 mb - 0.00 in0.0 mm 0.00 in0.0 mm
02:30 AM 25.4°F-3.7°C 22.1°F-5.5°C 87% 2.3 mph NNW3.7 kmh NNW 2.3 mph3.7 kmh 30.21 in1023.0 mb - 0.00 in0.0 mm 0.00 in0.0 mm
02:35 AM 25.7°F-3.5°C 22.4°F-5.3°C 87% 1.2 mph NNW1.9 kmh NNW 3.5 mph5.6 kmh 30.21 in1023.0 mb - 0.00 in0.0 mm 0.00 in0.0 mm
02:40 AM 25.8°F-3.4°C 22.5°F-5.3°C 87% 2.3 mph NW3.7 kmh NW 4.6 mph7.4 kmh 30.21 in1023.0 mb - 0.00 in0.0 mm 0.00 in0.0 mm
02:45 AM 25.9°F-3.4°C 22.6°F-5.2°C 87% 2.3 mph NW3.7 kmh NW 2.3 mph3.7 kmh 30.20 in1022.7 mb - 0.00 in0.0 mm 0.00 in0.0 mm
02:50 AM 26.0°F-3.3°C 22.7°F-5.2°C 87% 2.3 mph NW3.7 kmh NW 3.5 mph5.6 kmh 30.20 in1022.7 mb - 0.00 in0.0 mm 0.00 in0.0 mm
02:55 AM 26.1°F-3.3°C 22.8°F-5.1°C 87% 2.3 mph NW3.7 kmh NW 3.5 mph5.6 kmh 30.20 in1022.7 mb - 0.00 in0.0 mm 0.00 in0.0 mm
03:00 AM 26.2°F-3.2°C 22.9°F-5.1°C 87% Calm Calm 1.2 mph1.9 kmh 30.20 in1022.7 mb - 0.00 in0.0 mm 0.00 in0.0 mm
03:10 AM 26.3°F-3.2°C 23.0°F-5.0°C 87% 1.2 mph NW1.9 kmh NW 3.5 mph5.6 kmh 30.20 in1022.7 mb - 0.00 in0.0 mm 0.00 in0.0 mm
03:15 AM 26.3°F-3.2°C 23.0°F-5.0°C 87% 1.2 mph NW1.9 kmh NW 2.3 mph3.7 kmh 30.20 in1022.7 mb - 0.00 in0.0 mm 0.00 in0.0 mm
03:20 AM 26.3°F-3.2°C 23.0°F-5.0°C 87% 1.2 mph NW1.9 kmh NW 2.3 mph3.7 kmh 30.20 in1022.7 mb - 0.00 in0.0 mm 0.00 in0.0 mm
03:25 AM 26.3°F-3.2°C 23.0°F-5.0°C 87% Calm Calm 1.2 mph1.9 kmh 30.20 in1022.7 mb - 0.00 in0.0 mm 0.00 in0.0 mm
03:30 AM 26.4°F-3.1°C 23.0°F-5.0°C 87% 1.2 mph ENE1.9 kmh ENE 2.3 mph3.7 kmh 30.19 in1022.4 mb - 0.00 in0.0 mm 0.00 in0.0 mm
03:35 AM 26.5°F-3.1°C 23.2°F-4.9°C 87% 2.3 mph ENE3.7 kmh ENE 4.6 mph7.4 kmh 30.19 in1022.4 mb - 0.00 in0.0 mm 0.00 in0.0 mm
03:40 AM 26.8°F-2.9°C 23.2°F-4.9°C 86% 2.3 mph NE3.7 kmh NE 3.5 mph5.6 kmh 30.19 in1022.4 mb - 0.00 in0.0 mm 0.00 in0.0 mm
03:45 AM 26.9°F-2.8°C 23.0°F-5.0°C 85% 5.8 mph ENE9.3 kmh ENE 3.5 mph5.6 kmh 30.19 in1022.4 mb - 0.00 in0.0 mm 0.00 in0.0 mm
03:50 AM 27.1°F-2.7°C 22.9°F-5.1°C 84% 3.5 mph ENE5.6 kmh ENE 3.5 mph5.6 kmh 30.19 in1022.4 mb - 0.00 in0.0 mm 0.00 in0.0 mm
03:55 AM 27.1°F-2.7°C 22.9°F-5.1°C 84% 2.3 mph ENE3.7 kmh ENE 4.6 mph7.4 kmh 30.18 in1022.0 mb - 0.00 in0.0 mm 0.00 in0.0 mm
04:00 AM 27.1°F-2.7°C 22.6°F-5.2°C 83% 4.6 mph ENE7.4 kmh ENE 6.9 mph11.1 kmh 30.18 in1022.0 mb - 0.00 in0.0 mm 0.00 in0.0 mm
04:10 AM 27.1°F-2.7°C 22.6°F-5.2°C 83% 2.3 mph ENE3.7 kmh ENE 2.3 mph3.7 kmh 30.18 in1022.0 mb - 0.00 in0.0 mm 0.00 in0.0 mm
04:15 AM 27.1°F-2.7°C 22.6°F-5.2°C 83% 2.3 mph ENE3.7 kmh ENE 4.6 mph7.4 kmh 30.18 in1022.0 mb - 0.00 in0.0 mm 0.00 in0.0 mm
04:20 AM 27.1°F-2.7°C 22.6°F-5.2°C 83% 3.5 mph ENE5.6 kmh ENE 3.5 mph5.6 kmh 30.18 in1022.0 mb - 0.00 in0.0 mm 0.00 in0.0 mm
04:25 AM 27.1°F-2.7°C 22.6°F-5.2°C 83% 2.3 mph ENE3.7 kmh ENE 3.5 mph5.6 kmh 30.18 in1022.0 mb - 0.00 in0.0 mm 0.00 in0.0 mm
04:30 AM 27.0°F-2.8°C 22.5°F-5.3°C 83% 1.2 mph ENE1.9 kmh ENE 2.3 mph3.7 kmh 30.18 in1022.0 mb - 0.00 in0.0 mm 0.00 in0.0 mm
04:35 AM 27.0°F-2.8°C 22.5°F-5.3°C 83% 2.3 mph ENE3.7 kmh ENE 3.5 mph5.6 kmh 30.18 in1022.0 mb - 0.00 in0.0 mm 0.00 in0.0 mm
04:40 AM 27.0°F-2.8°C 22.5°F-5.3°C 83% 2.3 mph ENE3.7 kmh ENE 2.3 mph3.7 kmh 30.18 in1022.0 mb - 0.00 in0.0 mm 0.00 in0.0 mm
04:45 AM 27.1°F-2.7°C 22.6°F-5.2°C 83% 1.2 mph ENE1.9 kmh ENE 2.3 mph3.7 kmh 30.18 in1022.0 mb - 0.00 in0.0 mm 0.00 in0.0 mm
04:50 AM 27.1°F-2.7°C 22.6°F-5.2°C 83% 2.3 mph ENE3.7 kmh ENE 3.5 mph5.6 kmh 30.18 in1022.0 mb - 0.00 in0.0 mm 0.00 in0.0 mm
04:55 AM 27.1°F-2.7°C 22.6°F-5.2°C 83% 4.6 mph NE7.4 kmh NE 6.9 mph11.1 kmh 30.18 in1022.0 mb - 0.00 in0.0 mm 0.00 in0.0 mm
05:00 AM 27.1°F-2.7°C 22.6°F-5.2°C 83% 1.2 mph NE1.9 kmh NE 2.3 mph3.7 kmh 30.18 in1022.0 mb - 0.00 in0.0 mm 0.00 in0.0 mm
05:10 AM 27.1°F-2.7°C 22.6°F-5.2°C 83% 1.2 mph NE1.9 kmh NE 2.3 mph3.7 kmh 30.18 in1022.0 mb - 0.00 in0.0 mm 0.00 in0.0 mm
05:15 AM 27.1°F-2.7°C 22.6°F-5.2°C 83% 2.3 mph NE3.7 kmh NE 3.5 mph5.6 kmh 30.18 in1022.0 mb - 0.00 in0.0 mm 0.00 in0.0 mm
05:20 AM 27.2°F-2.7°C 22.7°F-5.2°C 83% 2.3 mph ENE3.7 kmh ENE 3.5 mph5.6 kmh 30.18 in1022.0 mb - 0.00 in0.0 mm 0.00 in0.0 mm
05:25 AM 27.2°F-2.7°C 22.4°F-5.3°C 82% 1.2 mph NE1.9 kmh NE 1.2 mph1.9 kmh 30.17 in1021.7 mb - 0.00 in0.0 mm 0.00 in0.0 mm
05:30 AM 27.3°F-2.6°C 22.5°F-5.3°C 82% 2.3 mph NNE3.7 kmh NNE 2.3 mph3.7 kmh 30.17 in1021.7 mb - 0.00 in0.0 mm 0.00 in0.0 mm
05:35 AM 27.3°F-2.6°C 22.5°F-5.3°C 82% 1.2 mph NNE1.9 kmh NNE 2.3 mph3.7 kmh 30.17 in1021.7 mb - 0.00 in0.0 mm 0.00 in0.0 mm
05:40 AM 27.3°F-2.6°C 22.2°F-5.4°C 81% 3.5 mph NE5.6 kmh NE 3.5 mph5.6 kmh 30.17 in1021.7 mb - 0.00 in0.0 mm 0.00 in0.0 mm
05:45 AM 27.4°F-2.6°C 22.0°F-5.6°C 80% 4.6 mph NE7.4 kmh NE 4.6 mph7.4 kmh 30.17 in1021.7 mb - 0.00 in0.0 mm 0.00 in0.0 mm
05:50 AM 27.4°F-2.6°C 22.0°F-5.6°C 80% 2.3 mph ENE3.7 kmh ENE 3.5 mph5.6 kmh 30.18 in1022.0 mb - 0.00 in0.0 mm 0.00 in0.0 mm
05:55 AM 27.5°F-2.5°C 22.1°F-5.5°C 80% 3.5 mph NE5.6 kmh NE 3.5 mph5.6 kmh 30.18 in1022.0 mb - 0.00 in0.0 mm 0.00 in0.0 mm
06:00 AM 27.6°F-2.4°C 21.9°F-5.6°C 79% 4.6 mph NE7.4 kmh NE 8.1 mph13.0 kmh 30.17 in1021.7 mb - 0.00 in0.0 mm 0.00 in0.0 mm
06:10 AM 27.7°F-2.4°C 22.0°F-5.6°C 79% 1.2 mph NNE1.9 kmh NNE 2.3 mph3.7 kmh 30.18 in1022.0 mb - 0.00 in0.0 mm 0.00 in0.0 mm
06:15 AM 27.8°F-2.3°C 22.1°F-5.5°C 79% 3.5 mph NE5.6 kmh NE 4.6 mph7.4 kmh 30.18 in1022.0 mb - 0.00 in0.0 mm 0.00 in0.0 mm
06:20 AM 27.8°F-2.3°C 21.8°F-5.7°C 78% 2.3 mph N3.7 kmh N 3.5 mph5.6 kmh 30.18 in1022.0 mb - 0.00 in0.0 mm 0.00 in0.0 mm
06:25 AM 27.9°F-2.3°C 21.9°F-5.6°C 78% 1.2 mph N1.9 kmh N 3.5 mph5.6 kmh 30.18 in1022.0 mb - 0.00 in0.0 mm 0.00 in0.0 mm
06:30 AM 27.9°F-2.3°C 22.2°F-5.4°C 79% 3.5 mph NE5.6 kmh NE 5.8 mph9.3 kmh 30.18 in1022.0 mb - 0.00 in0.0 mm 0.00 in0.0 mm
06:35 AM 27.9°F-2.3°C 22.2°F-5.4°C 79% 1.2 mph NE1.9 kmh NE 8.1 mph13.0 kmh 30.18 in1022.0 mb - 0.00 in0.0 mm 0.00 in0.0 mm
06:40 AM 28.0°F-2.2°C 22.3°F-5.4°C 79% 2.3 mph NE3.7 kmh NE 3.5 mph5.6 kmh 30.18 in1022.0 mb - 0.00 in0.0 mm 0.00 in0.0 mm
06:45 AM 28.0°F-2.2°C 22.3°F-5.4°C 79% 3.5 mph NE5.6 kmh NE 4.6 mph7.4 kmh 30.18 in1022.0 mb - 0.00 in0.0 mm 0.00 in0.0 mm
06:50 AM 28.1°F-2.2°C 22.4°F-5.3°C 79% 4.6 mph NE7.4 kmh NE 8.1 mph13.0 kmh 30.18 in1022.0 mb - 0.00 in0.0 mm 0.00 in0.0 mm
06:55 AM 28.2°F-2.1°C 22.5°F-5.3°C 79% 2.3 mph NE3.7 kmh NE 3.5 mph5.6 kmh 30.18 in1022.0 mb - 0.00 in0.0 mm 0.00 in0.0 mm
07:00 AM 28.3°F-2.1°C 22.9°F-5.1°C 80% 2.3 mph NE3.7 kmh NE 3.5 mph5.6 kmh 30.18 in1022.0 mb - 0.00 in0.0 mm 0.00 in0.0 mm
07:10 AM 28.6°F-1.9°C 23.2°F-4.9°C 80% 3.5 mph NE5.6 kmh NE 5.8 mph9.3 kmh 30.18 in1022.0 mb - 0.00 in0.0 mm 0.00 in0.0 mm
07:15 AM 28.7°F-1.8°C 23.3°F-4.8°C 80% 2.3 mph NNE3.7 kmh NNE 3.5 mph5.6 kmh 30.18 in1022.0 mb - 0.00 in0.0 mm 0.00 in0.0 mm
07:20 AM 28.8°F-1.8°C 23.4°F-4.8°C 80% 1.2 mph N1.9 kmh N 4.6 mph7.4 kmh 30.18 in1022.0 mb - 0.00 in0.0 mm 0.00 in0.0 mm
07:25 AM 28.8°F-1.8°C 23.7°F-4.6°C 81% 1.2 mph NNW1.9 kmh NNW 2.3 mph3.7 kmh 30.17 in1021.7 mb - 0.00 in0.0 mm 0.00 in0.0 mm
07:30 AM 28.9°F-1.7°C 23.8°F-4.6°C 81% 2.3 mph NNW3.7 kmh NNW 3.5 mph5.6 kmh 30.17 in1021.7 mb - 0.00 in0.0 mm 0.00 in0.0 mm
07:35 AM 29.0°F-1.7°C 24.2°F-4.3°C 82% 4.6 mph N7.4 kmh N 6.9 mph11.1 kmh 30.17 in1021.7 mb - 0.00 in0.0 mm 0.00 in0.0 mm
07:40 AM 29.0°F-1.7°C 24.2°F-4.3°C 82% 2.3 mph NW3.7 kmh NW 3.5 mph5.6 kmh 30.17 in1021.7 mb - 0.00 in0.0 mm 0.00 in0.0 mm
07:45 AM 28.9°F-1.7°C 24.1°F-4.4°C 82% 2.3 mph NNW3.7 kmh NNW 4.6 mph7.4 kmh 30.17 in1021.7 mb - 0.00 in0.0 mm 0.00 in0.0 mm
07:50 AM 28.8°F-1.8°C 24.0°F-4.4°C 82% 3.5 mph NNW5.6 kmh NNW 3.5 mph5.6 kmh 30.17 in1021.7 mb - 0.00 in0.0 mm 0.00 in0.0 mm
07:55 AM 28.8°F-1.8°C 24.0°F-4.4°C 82% 2.3 mph NNW3.7 kmh NNW 3.5 mph5.6 kmh 30.17 in1021.7 mb - 0.00 in0.0 mm 0.00 in0.0 mm
08:00 AM 28.7°F-1.8°C 23.9°F-4.5°C 82% 4.6 mph N7.4 kmh N 6.9 mph11.1 kmh 30.17 in1021.7 mb - 0.00 in0.0 mm 0.00 in0.0 mm
08:10 AM 28.7°F-1.8°C 23.9°F-4.5°C 82% 6.9 mph NNW11.1 kmh NNW 6.9 mph11.1 kmh 30.17 in1021.7 mb - 0.00 in0.0 mm 0.00 in0.0 mm
08:15 AM 28.6°F-1.9°C 23.8°F-4.6°C 82% 2.3 mph NNW3.7 kmh NNW 9.2 mph14.8 kmh 30.17 in1021.7 mb - 0.00 in0.0 mm 0.00 in0.0 mm
08:20 AM 28.6°F-1.9°C 23.5°F-4.7°C 81% 4.6 mph NNW7.4 kmh NNW 9.2 mph14.8 kmh 30.17 in1021.7 mb - 0.00 in0.0 mm 0.00 in0.0 mm
08:25 AM 28.6°F-1.9°C 23.5°F-4.7°C 81% 4.6 mph N7.4 kmh N 6.9 mph11.1 kmh 30.18 in1022.0 mb - 0.00 in0.0 mm 0.00 in0.0 mm
08:30 AM 28.6°F-1.9°C 23.5°F-4.7°C 81% 3.5 mph NNW5.6 kmh NNW 6.9 mph11.1 kmh 30.18 in1022.0 mb - 0.00 in0.0 mm 0.00 in0.0 mm
08:35 AM 28.5°F-1.9°C 23.4°F-4.8°C 81% 4.6 mph NW7.4 kmh NW 6.9 mph11.1 kmh 30.17 in1021.7 mb - 0.00 in0.0 mm 0.00 in0.0 mm
08:40 AM 28.4°F-2.0°C 23.3°F-4.8°C 81% 4.6 mph N7.4 kmh N 6.9 mph11.1 kmh 30.18 in1022.0 mb - 0.00 in0.0 mm 0.00 in0.0 mm
08:45 AM 28.3°F-2.1°C 23.2°F-4.9°C 81% 4.6 mph NNW7.4 kmh NNW 6.9 mph11.1 kmh 30.18 in1022.0 mb - 0.00 in0.0 mm 0.00 in0.0 mm
08:50 AM 28.1°F-2.2°C 22.7°F-5.2°C 80% 4.6 mph NNW7.4 kmh NNW 6.9 mph11.1 kmh 30.18 in1022.0 mb - 0.00 in0.0 mm 0.00 in0.0 mm
08:55 AM 28.0°F-2.2°C 22.6°F-5.2°C 80% 4.6 mph NW7.4 kmh NW 10.4 mph16.7 kmh 30.18 in1022.0 mb - 0.00 in0.0 mm 0.00 in0.0 mm
09:00 AM 27.9°F-2.3°C 22.5°F-5.3°C 80% 3.5 mph NNW5.6 kmh NNW 8.1 mph13.0 kmh 30.18 in1022.0 mb - 0.00 in0.0 mm 0.00 in0.0 mm
09:10 AM 27.7°F-2.4°C 22.6°F-5.2°C 81% 5.8 mph NNW9.3 kmh NNW 11.5 mph18.5 kmh 30.18 in1022.0 mb - 0.00 in0.0 mm 0.00 in0.0 mm
09:15 AM 27.6°F-2.4°C 22.5°F-5.3°C 81% 4.6 mph NNW7.4 kmh NNW 6.9 mph11.1 kmh 30.18 in1022.0 mb - 0.00 in0.0 mm 0.00 in0.0 mm
09:20 AM 27.6°F-2.4°C 22.5°F-5.3°C 81% 4.6 mph NNW7.4 kmh NNW 9.2 mph14.8 kmh 30.18 in1022.0 mb - 0.00 in0.0 mm 0.00 in0.0 mm
09:25 AM 27.5°F-2.5°C 22.5°F-5.3°C 81% 5.8 mph NW9.3 kmh NW 10.4 mph16.7 kmh 30.18 in1022.0 mb - 0.00 in0.0 mm 0.00 in0.0 mm
09:30 AM 27.5°F-2.5°C 22.4°F-5.3°C 81% 3.5 mph NNW5.6 kmh NNW 6.9 mph11.1 kmh 30.18 in1022.0 mb - 0.00 in0.0 mm 0.00 in0.0 mm
09:35 AM 27.5°F-2.5°C 22.7°F-5.2°C 82% 3.5 mph NNW5.6 kmh NNW 6.9 mph11.1 kmh 30.18 in1022.0 mb - 0.00 in0.0 mm 0.00 in0.0 mm
09:40 AM 27.5°F-2.5°C 22.7°F-5.2°C 82% 5.8 mph NW9.3 kmh NW 5.8 mph9.3 kmh 30.18 in1022.0 mb - 0.00 in0.0 mm 0.00 in0.0 mm
09:45 AM 27.5°F-2.5°C 22.7°F-5.2°C 82% 4.6 mph NW7.4 kmh NW 6.9 mph11.1 kmh 30.18 in1022.0 mb - 0.00 in0.0 mm 0.00 in0.0 mm
09:50 AM 27.4°F-2.6°C 22.6°F-5.2°C 82% 4.6 mph NW7.4 kmh NW 5.8 mph9.3 kmh 30.18 in1022.0 mb - 0.00 in0.0 mm 0.00 in0.0 mm
09:55 AM 27.4°F-2.6°C 22.3°F-5.4°C 81% 5.8 mph NW9.3 kmh NW 8.1 mph13.0 kmh 30.19 in1022.4 mb - 0.00 in0.0 mm 0.00 in0.0 mm
10:00 AM 27.2°F-2.7°C 22.2°F-5.4°C 81% 3.5 mph NW5.6 kmh NW 5.8 mph9.3 kmh 30.19 in1022.4 mb - 0.00 in0.0 mm 0.00 in0.0 mm
10:10 AM 27.1°F-2.7°C 22.0°F-5.6°C 81% 5.8 mph NNW9.3 kmh NNW 8.1 mph13.0 kmh 30.19 in1022.4 mb - 0.00 in0.0 mm 0.00 in0.0 mm
10:15 AM 27.0°F-2.8°C 22.0°F-5.6°C 81% 4.6 mph NNW7.4 kmh NNW 9.2 mph14.8 kmh 30.19 in1022.4 mb - 0.00 in0.0 mm 0.00 in0.0 mm
10:20 AM 27.0°F-2.8°C 21.9°F-5.6°C 81% 6.9 mph NNW11.1 kmh NNW 10.4 mph16.7 kmh 30.19 in1022.4 mb - 0.00 in0.0 mm 0.00 in0.0 mm
10:25 AM 27.0°F-2.8°C 22.2°F-5.4°C 82% 3.5 mph NNW5.6 kmh NNW 8.1 mph13.0 kmh 30.19 in1022.4 mb - 0.00 in0.0 mm 0.00 in0.0 mm
10:30 AM 27.0°F-2.8°C 22.2°F-5.4°C 82% 4.6 mph NNW7.4 kmh NNW 6.9 mph11.1 kmh 30.19 in1022.4 mb - 0.00 in0.0 mm 0.00 in0.0 mm
10:35 AM 27.0°F-2.8°C 21.9°F-5.6°C 81% 3.5 mph NW5.6 kmh NW 4.6 mph7.4 kmh 30.19 in1022.4 mb - 0.00 in0.0 mm 0.00 in0.0 mm
10:40 AM 27.0°F-2.8°C 22.2°F-5.4°C 82% 6.9 mph N11.1 kmh N 10.4 mph16.7 kmh 30.19 in1022.4 mb - 0.00 in0.0 mm 0.00 in0.0 mm
10:45 AM 27.0°F-2.8°C 22.0°F-5.6°C 81% 4.6 mph NNW7.4 kmh NNW 6.9 mph11.1 kmh 30.19 in1022.4 mb - 0.00 in0.0 mm 0.00 in0.0 mm
10:50 AM 27.1°F-2.7°C 22.3°F-5.4°C 82% 4.6 mph N7.4 kmh N 6.9 mph11.1 kmh 30.18 in1022.0 mb - 0.00 in0.0 mm 0.00 in0.0 mm
10:55 AM 27.2°F-2.7°C 22.4°F-5.3°C 82% 3.5 mph NNW5.6 kmh NNW 3.5 mph5.6 kmh 30.18 in1022.0 mb - 0.00 in0.0 mm 0.00 in0.0 mm
11:00 AM 27.2°F-2.7°C 22.4°F-5.3°C 82% 4.6 mph NW7.4 kmh NW 6.9 mph11.1 kmh 30.18 in1022.0 mb - 0.00 in0.0 mm 0.00 in0.0 mm
11:10 AM 27.3°F-2.6°C 22.5°F-5.3°C 82% 4.6 mph NNW7.4 kmh NNW 10.4 mph16.7 kmh 30.18 in1022.0 mb - 0.00 in0.0 mm 0.00 in0.0 mm
11:15 AM 27.3°F-2.6°C 22.5°F-5.3°C 82% 5.8 mph NNW9.3 kmh NNW 8.1 mph13.0 kmh 30.17 in1021.7 mb - 0.00 in0.0 mm 0.00 in0.0 mm
11:20 AM 27.4°F-2.6°C 22.6°F-5.2°C 82% 4.6 mph N7.4 kmh N 6.9 mph11.1 kmh 30.17 in1021.7 mb - 0.00 in0.0 mm 0.00 in0.0 mm
11:25 AM 27.4°F-2.6°C 22.6°F-5.2°C 82% 8.1 mph NW13.0 kmh NW 15.0 mph24.1 kmh 30.17 in1021.7 mb - 0.00 in0.0 mm 0.00 in0.0 mm
11:30 AM 27.4°F-2.6°C 22.6°F-5.2°C 82% 6.9 mph NNW11.1 kmh NNW 9.2 mph14.8 kmh 30.17 in1021.7 mb - 0.00 in0.0 mm 0.00 in0.0 mm
11:35 AM 27.4°F-2.6°C 22.6°F-5.2°C 82% 4.6 mph NW7.4 kmh NW 8.1 mph13.0 kmh 30.16 in1021.3 mb - 0.00 in0.0 mm 0.00 in0.0 mm
11:40 AM 27.4°F-2.6°C 22.6°F-5.2°C 82% 6.9 mph NW11.1 kmh NW 10.4 mph16.7 kmh 30.16 in1021.3 mb - 0.00 in0.0 mm 0.00 in0.0 mm
11:45 AM 27.4°F-2.6°C 22.6°F-5.2°C 82% 5.8 mph N9.3 kmh N 6.9 mph11.1 kmh 30.16 in1021.3 mb - 0.00 in0.0 mm 0.00 in0.0 mm
11:50 AM 27.4°F-2.6°C 22.6°F-5.2°C 82% 6.9 mph NNW11.1 kmh NNW 9.2 mph14.8 kmh 30.15 in1021.0 mb - 0.00 in0.0 mm 0.00 in0.0 mm
11:55 AM 27.4°F-2.6°C 22.6°F-5.2°C 82% 3.5 mph NNW5.6 kmh NNW 3.5 mph5.6 kmh 30.15 in1021.0 mb - 0.00 in0.0 mm 0.00 in0.0 mm
12:00 PM 27.5°F-2.5°C 22.7°F-5.2°C 82% 8.1 mph NNW13.0 kmh NNW 11.5 mph18.5 kmh 30.15 in1021.0 mb - 0.00 in0.0 mm 0.00 in0.0 mm
12:10 PM 27.6°F-2.4°C 22.8°F-5.1°C 82% 4.6 mph NW7.4 kmh NW 6.9 mph11.1 kmh 30.14 in1020.7 mb - 0.00 in0.0 mm 0.00 in0.0 mm
12:15 PM 27.6°F-2.4°C 22.8°F-5.1°C 82% 4.6 mph NNW7.4 kmh NNW 10.4 mph16.7 kmh 30.14 in1020.7 mb - 0.00 in0.0 mm 0.00 in0.0 mm
12:20 PM 27.6°F-2.4°C 22.8°F-5.1°C 82% 4.6 mph NW7.4 kmh NW 12.7 mph20.4 kmh 30.13 in1020.3 mb - 0.00 in0.0 mm 0.00 in0.0 mm
12:25 PM 27.6°F-2.4°C 22.9°F-5.1°C 82% 5.8 mph NNW9.3 kmh NNW 11.5 mph18.5 kmh 30.13 in1020.3 mb - 0.00 in0.0 mm 0.00 in0.0 mm
12:30 PM 27.7°F-2.4°C 22.9°F-5.1°C 82% 5.8 mph N9.3 kmh N 10.4 mph16.7 kmh 30.13 in1020.3 mb - 0.00 in0.0 mm 0.00 in0.0 mm
12:35 PM 27.7°F-2.4°C 23.0°F-5.0°C 82% 9.2 mph NNW14.8 kmh NNW 11.5 mph18.5 kmh 30.13 in1020.3 mb - 0.00 in0.0 mm 0.00 in0.0 mm
12:40 PM 27.8°F-2.3°C 23.0°F-5.0°C 82% 6.9 mph NNW11.1 kmh NNW 10.4 mph16.7 kmh 30.12 in1020.0 mb - 0.00 in0.0 mm 0.00 in0.0 mm
12:45 PM 27.8°F-2.3°C 23.0°F-5.0°C 82% 6.9 mph NNW11.1 kmh NNW 9.2 mph14.8 kmh 30.12 in1020.0 mb - 0.00 in0.0 mm 0.00 in0.0 mm
12:50 PM 27.9°F-2.3°C 23.1°F-4.9°C 82% 5.8 mph NNW9.3 kmh NNW 8.1 mph13.0 kmh 30.12 in1020.0 mb - 0.00 in0.0 mm 0.00 in0.0 mm
12:55 PM 27.9°F-2.3°C 23.1°F-4.9°C 82% 5.8 mph NNW9.3 kmh NNW 11.5 mph18.5 kmh 30.12 in1020.0 mb - 0.00 in0.0 mm 0.00 in0.0 mm
01:00 PM 28.0°F-2.2°C 23.5°F-4.7°C 83% 3.5 mph NNW5.6 kmh NNW 8.1 mph13.0 kmh 30.12 in1020.0 mb - 0.00 in0.0 mm 0.00 in0.0 mm
01:10 PM 27.9°F-2.3°C 23.4°F-4.8°C 83% 4.6 mph NNW7.4 kmh NNW 5.8 mph9.3 kmh 30.11 in1019.6 mb - 0.00 in0.0 mm 0.00 in0.0 mm
01:15 PM 27.9°F-2.3°C 23.7°F-4.6°C 84% 4.6 mph NNW7.4 kmh NNW 6.9 mph11.1 kmh 30.11 in1019.6 mb - 0.00 in0.0 mm 0.00 in0.0 mm
01:20 PM 27.9°F-2.3°C 23.7°F-4.6°C 84% 5.8 mph NNW9.3 kmh NNW 8.1 mph13.0 kmh 30.11 in1019.6 mb - 0.00 in0.0 mm 0.00 in0.0 mm
01:25 PM 28.0°F-2.2°C 23.8°F-4.6°C 84% 4.6 mph NW7.4 kmh NW 4.6 mph7.4 kmh 30.11 in1019.6 mb - 0.00 in0.0 mm 0.00 in0.0 mm
01:30 PM 28.0°F-2.2°C 23.8°F-4.6°C 84% 3.5 mph NNW5.6 kmh NNW 6.9 mph11.1 kmh 30.11 in1019.6 mb - 0.00 in0.0 mm 0.00 in0.0 mm
01:35 PM 28.1°F-2.2°C 23.9°F-4.5°C 84% 3.5 mph NW5.6 kmh NW 8.1 mph13.0 kmh 30.11 in1019.6 mb - 0.00 in0.0 mm 0.00 in0.0 mm
01:40 PM 28.3°F-2.1°C 24.1°F-4.4°C 84% 4.6 mph NNW7.4 kmh NNW 8.1 mph13.0 kmh 30.11 in1019.6 mb - 0.00 in0.0 mm 0.00 in0.0 mm
01:45 PM 28.5°F-1.9°C 24.3°F-4.3°C 84% 4.6 mph NNW7.4 kmh NNW 6.9 mph11.1 kmh 30.11 in1019.6 mb - 0.00 in0.0 mm 0.00 in0.0 mm
01:50 PM 28.6°F-1.9°C 24.4°F-4.2°C 84% 4.6 mph NNW7.4 kmh NNW 8.1 mph13.0 kmh 30.11 in1019.6 mb - 0.00 in0.0 mm 0.00 in0.0 mm
01:55 PM 28.7°F-1.8°C 24.2°F-4.3°C 83% 5.8 mph NW9.3 kmh NW 10.4 mph16.7 kmh 30.11 in1019.6 mb - 0.00 in0.0 mm 0.00 in0.0 mm
02:00 PM 28.8°F-1.8°C 24.2°F-4.3°C 83% 4.6 mph NW7.4 kmh NW 4.6 mph7.4 kmh 30.11 in1019.6 mb - 0.00 in0.0 mm 0.00 in0.0 mm
02:10 PM 28.8°F-1.8°C 24.3°F-4.3°C 83% 4.6 mph NW7.4 kmh NW 6.9 mph11.1 kmh 30.11 in1019.6 mb - 0.00 in0.0 mm 0.00 in0.0 mm
02:15 PM 28.8°F-1.8°C 24.3°F-4.3°C 83% 6.9 mph N11.1 kmh N 8.1 mph13.0 kmh 30.11 in1019.6 mb - 0.00 in0.0 mm 0.00 in0.0 mm
02:20 PM 28.8°F-1.8°C 24.3°F-4.3°C 83% 4.6 mph N7.4 kmh N 3.5 mph5.6 kmh 30.11 in1019.6 mb - 0.00 in0.0 mm 0.00 in0.0 mm
02:25 PM 28.9°F-1.7°C 24.4°F-4.2°C 83% 5.8 mph NNW9.3 kmh NNW 6.9 mph11.1 kmh 30.11 in1019.6 mb - 0.00 in0.0 mm 0.00 in0.0 mm
02:30 PM 29.0°F-1.7°C 24.5°F-4.2°C 83% 5.8 mph NW9.3 kmh NW 9.2 mph14.8 kmh 30.11 in1019.6 mb - 0.00 in0.0 mm 0.00 in0.0 mm
02:35 PM 29.0°F-1.7°C 24.5°F-4.2°C 83% 5.8 mph NNW9.3 kmh NNW 9.2 mph14.8 kmh 30.11 in1019.6 mb - 0.00 in0.0 mm 0.00 in0.0 mm
02:40 PM 29.0°F-1.7°C 24.5°F-4.2°C 83% 3.5 mph N5.6 kmh N 8.1 mph13.0 kmh 30.11 in1019.6 mb - 0.00 in0.0 mm 0.00 in0.0 mm
02:45 PM 29.0°F-1.7°C 24.5°F-4.2°C 83% 3.5 mph NW5.6 kmh NW 8.1 mph13.0 kmh 30.11 in1019.6 mb - 0.00 in0.0 mm 0.00 in0.0 mm
02:50 PM 29.1°F-1.6°C 24.9°F-3.9°C 84% 4.6 mph NNW7.4 kmh NNW 9.2 mph14.8 kmh 30.11 in1019.6 mb - 0.00 in0.0 mm 0.00 in0.0 mm
02:55 PM 29.1°F-1.6°C 24.8°F-4.0°C 84% 4.6 mph NNW7.4 kmh NNW 8.1 mph13.0 kmh 30.11 in1019.6 mb - 0.00 in0.0 mm 0.00 in0.0 mm
03:00 PM 29.0°F-1.7°C 24.8°F-4.0°C 84% 6.9 mph NNW11.1 kmh NNW 6.9 mph11.1 kmh 30.11 in1019.6 mb - 0.00 in0.0 mm 0.00 in0.0 mm
03:10 PM 29.0°F-1.7°C 24.8°F-4.0°C 84% 6.9 mph NW11.1 kmh NW 10.4 mph16.7 kmh 30.11 in1019.6 mb - 0.00 in0.0 mm 0.00 in0.0 mm
03:15 PM 28.9°F-1.7°C 25.0°F-3.9°C 85% 8.1 mph NNW13.0 kmh NNW 11.5 mph18.5 kmh 30.11 in1019.6 mb - 0.00 in0.0 mm 0.00 in0.0 mm
03:20 PM 28.8°F-1.8°C 24.9°F-3.9°C 85% 6.9 mph NNW11.1 kmh NNW 10.4 mph16.7 kmh 30.11 in1019.6 mb - 0.00 in0.0 mm 0.00 in0.0 mm
03:25 PM 28.8°F-1.8°C 24.9°F-3.9°C 85% 6.9 mph NW11.1 kmh NW 11.5 mph18.5 kmh 30.11 in1019.6 mb - 0.00 in0.0 mm 0.00 in0.0 mm
03:30 PM 28.8°F-1.8°C 24.8°F-4.0°C 85% 4.6 mph NNW7.4 kmh NNW 6.9 mph11.1 kmh 30.11 in1019.6 mb - 0.00 in0.0 mm 0.00 in0.0 mm
03:35 PM 28.8°F-1.8°C 24.9°F-3.9°C 85% 4.6 mph NNW7.4 kmh NNW 9.2 mph14.8 kmh 30.11 in1019.6 mb - 0.00 in0.0 mm 0.00 in0.0 mm
03:40 PM 28.8°F-1.8°C 25.1°F-3.8°C 86% 6.9 mph NNW11.1 kmh NNW 11.5 mph18.5 kmh 30.11 in1019.6 mb - 0.00 in0.0 mm 0.00 in0.0 mm
03:45 PM 28.8°F-1.8°C 25.1°F-3.8°C 86% 4.6 mph NNW7.4 kmh NNW 8.1 mph13.0 kmh 30.11 in1019.6 mb - 0.00 in0.0 mm 0.00 in0.0 mm
03:50 PM 28.8°F-1.8°C 25.1°F-3.8°C 86% 5.8 mph N9.3 kmh N 12.7 mph20.4 kmh 30.11 in1019.6 mb - 0.00 in0.0 mm 0.00 in0.0 mm
03:55 PM 28.8°F-1.8°C 25.1°F-3.8°C 86% 5.8 mph NNW9.3 kmh NNW 11.5 mph18.5 kmh 30.10 in1019.3 mb - 0.00 in0.0 mm 0.00 in0.0 mm
04:00 PM 28.8°F-1.8°C 25.1°F-3.8°C 86% 6.9 mph NNW11.1 kmh NNW 15.0 mph24.1 kmh 30.10 in1019.3 mb - 0.00 in0.0 mm 0.00 in0.0 mm
04:10 PM 28.8°F-1.8°C 24.8°F-4.0°C 85% 5.8 mph NW9.3 kmh NW 8.1 mph13.0 kmh 30.10 in1019.3 mb - 0.00 in0.0 mm 0.00 in0.0 mm
04:15 PM 28.7°F-1.8°C 25.0°F-3.9°C 86% 5.8 mph NNW9.3 kmh NNW 8.1 mph13.0 kmh 30.10 in1019.3 mb - 0.00 in0.0 mm 0.00 in0.0 mm
04:20 PM 28.7°F-1.8°C 24.8°F-4.0°C 85% 8.1 mph N13.0 kmh N 11.5 mph18.5 kmh 30.09 in1019.0 mb - 0.00 in0.0 mm 0.00 in0.0 mm
04:25 PM 28.7°F-1.8°C 24.8°F-4.0°C 85% 5.8 mph NNW9.3 kmh NNW 5.8 mph9.3 kmh 30.09 in1019.0 mb - 0.00 in0.0 mm 0.00 in0.0 mm
04:30 PM 28.7°F-1.8°C 24.7°F-4.1°C 85% 4.6 mph NNW7.4 kmh NNW 10.4 mph16.7 kmh 30.09 in1019.0 mb - 0.00 in0.0 mm 0.00 in0.0 mm
04:35 PM 28.6°F-1.9°C 24.7°F-4.1°C 85% 9.2 mph N14.8 kmh N 11.5 mph18.5 kmh 30.09 in1019.0 mb - 0.00 in0.0 mm 0.00 in0.0 mm
04:40 PM 28.6°F-1.9°C 24.7°F-4.1°C 85% 5.8 mph NNW9.3 kmh NNW 11.5 mph18.5 kmh 30.09 in1019.0 mb - 0.00 in0.0 mm 0.00 in0.0 mm
04:45 PM 28.6°F-1.9°C 24.7°F-4.1°C 85% 6.9 mph NNW11.1 kmh NNW 11.5 mph18.5 kmh 30.09 in1019.0 mb - 0.00 in0.0 mm 0.00 in0.0 mm
04:50 PM 28.7°F-1.8°C 24.5°F-4.2°C 84% 5.8 mph N9.3 kmh N 9.2 mph14.8 kmh 30.09 in1019.0 mb - 0.00 in0.0 mm 0.00 in0.0 mm
04:55 PM 28.7°F-1.8°C 24.5°F-4.2°C 84% 6.9 mph N11.1 kmh N 10.4 mph16.7 kmh 30.09 in1019.0 mb - 0.00 in0.0 mm 0.00 in0.0 mm
05:00 PM 28.7°F-1.8°C 24.5°F-4.2°C 84% 8.1 mph NNW13.0 kmh NNW 10.4 mph16.7 kmh 30.09 in1019.0 mb - 0.00 in0.0 mm 0.00 in0.0 mm
05:10 PM 28.7°F-1.8°C 24.5°F-4.2°C 84% 8.1 mph NNW13.0 kmh NNW 9.2 mph14.8 kmh 30.08 in1018.6 mb - 0.00 in0.0 mm 0.00 in0.0 mm
05:15 PM 28.7°F-1.8°C 24.5°F-4.2°C 84% 8.1 mph NNW13.0 kmh NNW 10.4 mph16.7 kmh 30.08 in1018.6 mb - 0.00 in0.0 mm 0.00 in0.0 mm
05:20 PM 28.7°F-1.8°C 24.2°F-4.3°C 83% 4.6 mph NNW7.4 kmh NNW 12.7 mph20.4 kmh 30.08 in1018.6 mb - 0.00 in0.0 mm 0.00 in0.0 mm
05:25 PM 28.8°F-1.8°C 24.3°F-4.3°C 83% 4.6 mph NW7.4 kmh NW 8.1 mph13.0 kmh 30.08 in1018.6 mb - 0.00 in0.0 mm 0.00 in0.0 mm
05:30 PM 28.8°F-1.8°C 24.3°F-4.3°C 83% 8.1 mph NNW13.0 kmh NNW 16.1 mph25.9 kmh 30.08 in1018.6 mb - 0.00 in0.0 mm 0.00 in0.0 mm
05:35 PM 28.8°F-1.8°C 24.0°F-4.4°C 82% 4.6 mph NW7.4 kmh NW 11.5 mph18.5 kmh 30.07 in1018.3 mb - 0.00 in0.0 mm 0.00 in0.0 mm
05:40 PM 28.7°F-1.8°C 23.9°F-4.5°C 82% 4.6 mph NW7.4 kmh NW 4.6 mph7.4 kmh 30.07 in1018.3 mb - 0.00 in0.0 mm 0.00 in0.0 mm
05:45 PM 28.7°F-1.8°C 23.9°F-4.5°C 82% 5.8 mph NNW9.3 kmh NNW 11.5 mph18.5 kmh 30.07 in1018.3 mb - 0.00 in0.0 mm 0.00 in0.0 mm
05:50 PM 28.7°F-1.8°C 23.9°F-4.5°C 82% 6.9 mph N11.1 kmh N 11.5 mph18.5 kmh 30.08 in1018.6 mb - 0.00 in0.0 mm 0.00 in0.0 mm
05:55 PM 28.8°F-1.8°C 23.7°F-4.6°C 81% 5.8 mph NW9.3 kmh NW 9.2 mph14.8 kmh 30.07 in1018.3 mb - 0.00 in0.0 mm 0.00 in0.0 mm
06:00 PM 28.8°F-1.8°C 23.7°F-4.6°C 81% 5.8 mph NNW9.3 kmh NNW 8.1 mph13.0 kmh 30.08 in1018.6 mb - 0.00 in0.0 mm 0.00 in0.0 mm
06:10 PM 28.8°F-1.8°C 23.4°F-4.8°C 80% 3.5 mph NW5.6 kmh NW 4.6 mph7.4 kmh 30.07 in1018.3 mb - 0.00 in0.0 mm 0.00 in0.0 mm
06:15 PM 28.8°F-1.8°C 23.4°F-4.8°C 80% 6.9 mph NNW11.1 kmh NNW 9.2 mph14.8 kmh 30.07 in1018.3 mb - 0.00 in0.0 mm 0.00 in0.0 mm
06:20 PM 28.8°F-1.8°C 23.4°F-4.8°C 80% 4.6 mph NW7.4 kmh NW 8.1 mph13.0 kmh 30.07 in1018.3 mb - 0.00 in0.0 mm 0.00 in0.0 mm
06:25 PM 28.9°F-1.7°C 23.5°F-4.7°C 80% 6.9 mph NW11.1 kmh NW 10.4 mph16.7 kmh 30.07 in1018.3 mb - 0.00 in0.0 mm 0.00 in0.0 mm
06:30 PM 28.9°F-1.7°C 23.2°F-4.9°C 79% 6.9 mph NNW11.1 kmh NNW 11.5 mph18.5 kmh 30.07 in1018.3 mb - 0.00 in0.0 mm 0.00 in0.0 mm
06:35 PM 29.0°F-1.7°C 23.3°F-4.8°C 79% 5.8 mph NNW9.3 kmh NNW 5.8 mph9.3 kmh 30.07 in1018.3 mb - 0.00 in0.0 mm 0.00 in0.0 mm
06:40 PM 28.9°F-1.7°C 22.9°F-5.1°C 78% 5.8 mph NNW9.3 kmh NNW 9.2 mph14.8 kmh 30.07 in1018.3 mb - 0.00 in0.0 mm 0.00 in0.0 mm
06:45 PM 28.9°F-1.7°C 22.9°F-5.1°C 78% 6.9 mph NNW11.1 kmh NNW 10.4 mph16.7 kmh 30.07 in1018.3 mb - 0.00 in0.0 mm 0.00 in0.0 mm
06:50 PM 29.0°F-1.7°C 23.0°F-5.0°C 78% 5.8 mph NNW9.3 kmh NNW 10.4 mph16.7 kmh 30.06 in1017.9 mb - 0.00 in0.0 mm 0.00 in0.0 mm
06:55 PM 28.9°F-1.7°C 22.6°F-5.2°C 77% 8.1 mph NNW13.0 kmh NNW 9.2 mph14.8 kmh 30.06 in1017.9 mb - 0.00 in0.0 mm 0.00 in0.0 mm
07:00 PM 29.0°F-1.7°C 22.7°F-5.2°C 77% 6.9 mph NNW11.1 kmh NNW 9.2 mph14.8 kmh 30.06 in1017.9 mb - 0.00 in0.0 mm 0.00 in0.0 mm
07:10 PM 29.0°F-1.7°C 22.7°F-5.2°C 77% 5.8 mph NNW9.3 kmh NNW 9.2 mph14.8 kmh 30.06 in1017.9 mb - 0.00 in0.0 mm 0.00 in0.0 mm
07:15 PM 29.1°F-1.6°C 22.8°F-5.1°C 77% 5.8 mph NW9.3 kmh NW 9.2 mph14.8 kmh 30.06 in1017.9 mb - 0.00 in0.0 mm 0.00 in0.0 mm
07:20 PM 29.1°F-1.6°C 22.8°F-5.1°C 77% 5.8 mph N9.3 kmh N 12.7 mph20.4 kmh 30.06 in1017.9 mb - 0.00 in0.0 mm 0.00 in0.0 mm
07:25 PM 29.1°F-1.6°C 22.5°F-5.3°C 76% 4.6 mph N7.4 kmh N 5.8 mph9.3 kmh 30.06 in1017.9 mb - 0.00 in0.0 mm 0.00 in0.0 mm
07:30 PM 29.2°F-1.6°C 22.6°F-5.2°C 76% 5.8 mph NW9.3 kmh NW 9.2 mph14.8 kmh 30.06 in1017.9 mb - 0.00 in0.0 mm 0.00 in0.0 mm
07:35 PM 29.2°F-1.6°C 22.6°F-5.2°C 76% 9.2 mph NNW14.8 kmh NNW 15.0 mph24.1 kmh 30.06 in1017.9 mb - 0.00 in0.0 mm 0.00 in0.0 mm
07:40 PM 29.2°F-1.6°C 22.6°F-5.2°C 76% 6.9 mph NNW11.1 kmh NNW 11.5 mph18.5 kmh 30.06 in1017.9 mb - 0.00 in0.0 mm 0.00 in0.0 mm
07:50 PM 29.3°F-1.5°C 22.7°F-5.2°C 76% 6.9 mph N11.1 kmh N 8.1 mph13.0 kmh 30.06 in1017.9 mb - 0.00 in0.0 mm 0.00 in0.0 mm
08:00 PM 29.4°F-1.4°C 23.1°F-4.9°C 77% 5.8 mph N9.3 kmh N 12.7 mph20.4 kmh 30.05 in1017.6 mb - 0.00 in0.0 mm 0.00 in0.0 mm
08:10 PM 29.7°F-1.3°C 23.7°F-4.6°C 78% 9.2 mph NNE14.8 kmh NNE 17.3 mph27.8 kmh 30.04 in1017.3 mb - 0.00 in0.0 mm 0.00 in0.0 mm
08:15 PM 29.8°F-1.2°C 23.5°F-4.7°C 77% 8.1 mph N13.0 kmh N 11.5 mph18.5 kmh 30.04 in1017.3 mb - 0.00 in0.0 mm 0.00 in0.0 mm
08:20 PM 29.7°F-1.3°C 23.7°F-4.6°C 78% 6.9 mph N11.1 kmh N 5.8 mph9.3 kmh 30.04 in1017.3 mb - 0.00 in0.0 mm 0.00 in0.0 mm
08:25 PM 29.6°F-1.3°C 23.9°F-4.5°C 79% 6.9 mph N11.1 kmh N 9.2 mph14.8 kmh 30.04 in1017.3 mb - 0.00 in0.0 mm 0.00 in0.0 mm
08:30 PM 29.3°F-1.5°C 23.9°F-4.5°C 80% 9.2 mph N14.8 kmh N 16.1 mph25.9 kmh 30.04 in1017.3 mb - 0.00 in0.0 mm 0.00 in0.0 mm
08:35 PM 28.8°F-1.8°C 23.7°F-4.6°C 81% 6.9 mph NNE11.1 kmh NNE 11.5 mph18.5 kmh 30.04 in1017.3 mb - 0.00 in0.0 mm 0.00 in0.0 mm
08:40 PM 28.5°F-1.9°C 23.7°F-4.6°C 82% 9.2 mph NNE14.8 kmh NNE 13.8 mph22.2 kmh 30.04 in1017.3 mb - 0.00 in0.0 mm 0.00 in0.0 mm
08:45 PM 28.2°F-2.1°C 23.4°F-4.8°C 82% 5.8 mph N9.3 kmh N 18.4 mph29.6 kmh 30.04 in1017.3 mb - 0.00 in0.0 mm 0.00 in0.0 mm
08:50 PM 27.9°F-2.3°C 23.1°F-4.9°C 82% 8.1 mph N13.0 kmh N 13.8 mph22.2 kmh 30.04 in1017.3 mb - 0.00 in0.0 mm 0.00 in0.0 mm
08:55 PM 27.6°F-2.4°C 23.1°F-4.9°C 83% 9.2 mph NNW14.8 kmh NNW 17.3 mph27.8 kmh 30.03 in1016.9 mb - 0.00 in0.0 mm 0.00 in0.0 mm
09:00 PM 27.4°F-2.6°C 22.6°F-5.2°C 82% 10.4 mph N16.7 kmh N 13.8 mph22.2 kmh 30.03 in1016.9 mb - 0.00 in0.0 mm 0.00 in0.0 mm
09:10 PM 27.2°F-2.7°C 22.7°F-5.2°C 83% 6.9 mph N11.1 kmh N 16.1 mph25.9 kmh 30.03 in1016.9 mb - 0.00 in0.0 mm 0.00 in0.0 mm
09:15 PM 27.1°F-2.7°C 22.6°F-5.2°C 83% 9.2 mph N14.8 kmh N 19.6 mph31.5 kmh 30.03 in1016.9 mb - 0.00 in0.0 mm 0.00 in0.0 mm
09:20 PM 27.0°F-2.8°C 22.5°F-5.3°C 83% 5.8 mph N9.3 kmh N 12.7 mph20.4 kmh 30.03 in1016.9 mb - 0.00 in0.0 mm 0.00 in0.0 mm
09:25 PM 26.9°F-2.8°C 22.4°F-5.3°C 83% 5.8 mph N9.3 kmh N 11.5 mph18.5 kmh 30.03 in1016.9 mb - 0.00 in0.0 mm 0.00 in0.0 mm
09:30 PM 26.7°F-2.9°C 22.2°F-5.4°C 83% 8.1 mph NNW13.0 kmh NNW 9.2 mph14.8 kmh 30.02 in1016.6 mb - 0.00 in0.0 mm 0.00 in0.0 mm
09:35 PM 26.5°F-3.1°C 22.0°F-5.6°C 83% 5.8 mph N9.3 kmh N 12.7 mph20.4 kmh 30.02 in1016.6 mb - 0.00 in0.0 mm 0.00 in0.0 mm
09:40 PM 26.2°F-3.2°C 21.8°F-5.7°C 83% 6.9 mph N11.1 kmh N 15.0 mph24.1 kmh 30.02 in1016.6 mb - 0.00 in0.0 mm 0.00 in0.0 mm
09:45 PM 26.0°F-3.3°C 21.5°F-5.8°C 83% 11.5 mph NNW18.5 kmh NNW 17.3 mph27.8 kmh 30.02 in1016.6 mb - 0.00 in0.0 mm 0.00 in0.0 mm
09:50 PM 25.7°F-3.5°C 21.0°F-6.1°C 82% 8.1 mph NNW13.0 kmh NNW 13.8 mph22.2 kmh 30.02 in1016.6 mb - 0.00 in0.0 mm 0.00 in0.0 mm
09:55 PM 25.6°F-3.6°C 21.2°F-6.0°C 83% 6.9 mph NNW11.1 kmh NNW 8.1 mph13.0 kmh 30.02 in1016.6 mb - 0.00 in0.0 mm 0.00 in0.0 mm
10:00 PM 25.5°F-3.6°C 21.1°F-6.1°C 83% 11.5 mph N18.5 kmh N 18.4 mph29.6 kmh 30.02 in1016.6 mb - 0.00 in0.0 mm 0.00 in0.0 mm
10:10 PM 25.4°F-3.7°C 21.0°F-6.1°C 83% 8.1 mph NNW13.0 kmh NNW 16.1 mph25.9 kmh 30.01 in1016.3 mb - 0.00 in0.0 mm 0.00 in0.0 mm
10:15 PM 25.4°F-3.7°C 21.0°F-6.1°C 83% 10.4 mph NNW16.7 kmh NNW 18.4 mph29.6 kmh 30.01 in1016.3 mb - 0.00 in0.0 mm 0.00 in0.0 mm
10:20 PM 25.4°F-3.7°C 21.0°F-6.1°C 83% 9.2 mph NW14.8 kmh NW 12.7 mph20.4 kmh 30.01 in1016.3 mb - 0.00 in0.0 mm 0.00 in0.0 mm
10:25 PM 25.4°F-3.7°C 20.9°F-6.2°C 83% 9.2 mph NNW14.8 kmh NNW 16.1 mph25.9 kmh 30.00 in1015.9 mb - 0.00 in0.0 mm 0.00 in0.0 mm
10:30 PM 25.3°F-3.7°C 20.9°F-6.2°C 83% 6.9 mph NNW11.1 kmh NNW 11.5 mph18.5 kmh 30.00 in1015.9 mb - 0.00 in0.0 mm 0.00 in0.0 mm
10:35 PM 25.4°F-3.7°C 20.9°F-6.2°C 83% 10.4 mph NNW16.7 kmh NNW 16.1 mph25.9 kmh 30.00 in1015.9 mb - 0.00 in0.0 mm 0.00 in0.0 mm
10:40 PM 25.3°F-3.7°C 20.9°F-6.2°C 83% 10.4 mph NNW16.7 kmh NNW 16.1 mph25.9 kmh 30.00 in1015.9 mb - 0.00 in0.0 mm 0.00 in0.0 mm
10:45 PM 25.4°F-3.7°C 21.0°F-6.1°C 83% 9.2 mph N14.8 kmh N 11.5 mph18.5 kmh 30.00 in1015.9 mb - 0.00 in0.0 mm 0.00 in0.0 mm
10:50 PM 25.3°F-3.7°C 20.9°F-6.2°C 83% 11.5 mph NNW18.5 kmh NNW 17.3 mph27.8 kmh 30.00 in1015.9 mb - 0.00 in0.0 mm 0.00 in0.0 mm
10:55 PM 25.2°F-3.8°C 20.8°F-6.2°C 83% 10.4 mph N16.7 kmh N 20.7 mph33.3 kmh 30.00 in1015.9 mb - 0.00 in0.0 mm 0.00 in0.0 mm
11:00 PM 25.2°F-3.8°C 20.8°F-6.2°C 83% 12.7 mph NW20.4 kmh NW 19.6 mph31.5 kmh 30.00 in1015.9 mb - 0.00 in0.0 mm 0.00 in0.0 mm
11:10 PM 25.1°F-3.8°C 20.7°F-6.3°C 83% 10.4 mph NNW16.7 kmh NNW 16.1 mph25.9 kmh 29.99 in1015.6 mb - 0.00 in0.0 mm 0.00 in0.0 mm
11:15 PM 25.1°F-3.8°C 20.6°F-6.3°C 83% 8.1 mph NNW13.0 kmh NNW 17.3 mph27.8 kmh 30.00 in1015.9 mb - 0.00 in0.0 mm 0.00 in0.0 mm
11:20 PM 25.0°F-3.9°C 20.3°F-6.5°C 82% 9.2 mph NNW14.8 kmh NNW 18.4 mph29.6 kmh 30.00 in1015.9 mb - 0.00 in0.0 mm 0.00 in0.0 mm
11:25 PM 25.0°F-3.9°C 20.2°F-6.6°C 82% 11.5 mph NNW18.5 kmh NNW 15.0 mph24.1 kmh 29.99 in1015.6 mb - 0.00 in0.0 mm 0.00 in0.0 mm
11:30 PM 25.0°F-3.9°C 20.2°F-6.6°C 82% 10.4 mph NNW16.7 kmh NNW 15.0 mph24.1 kmh 30.00 in1015.9 mb - 0.00 in0.0 mm 0.00 in0.0 mm
11:35 PM 24.9°F-3.9°C 19.9°F-6.7°C 81% 11.5 mph NNW18.5 kmh NNW 18.4 mph29.6 kmh 29.99 in1015.6 mb - 0.00 in0.0 mm 0.00 in0.0 mm
11:40 PM 25.0°F-3.9°C 20.0°F-6.7°C 81% 12.7 mph NNW20.4 kmh NNW 18.4 mph29.6 kmh 30.00 in1015.9 mb - 0.00 in0.0 mm 0.00 in0.0 mm
11:45 PM 25.0°F-3.9°C 20.0°F-6.7°C 81% 11.5 mph NNW18.5 kmh NNW 21.9 mph35.2 kmh 29.99 in1015.6 mb - 0.00 in0.0 mm 0.00 in0.0 mm
11:50 PM 25.1°F-3.8°C 20.1°F-6.6°C 81% 6.9 mph NNW11.1 kmh NNW 12.7 mph20.4 kmh 29.99 in1015.6 mb - 0.00 in0.0 mm 0.00 in0.0 mm
11:55 PM 25.2°F-3.8°C 20.2°F-6.6°C 81% 6.9 mph NNW11.1 kmh NNW 13.8 mph22.2 kmh 29.99 in1015.6 mb - 0.00 in0.0 mm 0.00 in0.0 mm